Time;durP1;ratioP1;P1;durP2;ratioP2;P2;SDS_P1;SDS_P2;PMS_P1;PMS_P2;Temp;Humidity;BMP_temperature;BMP_pressure;BME280_temperature;BME280_humidity;BME280_pressure;Samples;Min_cycle;Max_cycle;Signal;HPM_P1;HPM_P2
2022/07/25 00:00:23;;;;;;;11.23;10.23;;;28.60;66.70;;;;;;4997586;28;20435;-74
2022/07/25 00:02:49;;;;;;;10.93;10.03;;;28.60;66.70;;;;;;4995987;28;20585;-71
2022/07/25 00:05:14;;;;;;;10.03;9.23;;;28.50;66.50;;;;;;4996095;28;20229;-73
2022/07/25 00:07:40;;;;;;;11.23;10.23;;;28.50;66.50;;;;;;4995502;28;20195;-72
2022/07/25 00:10:07;;;;;;;11.50;10.60;;;28.50;66.60;;;;;;4998249;28;20335;-72
2022/07/25 00:12:32;;;;;;;10.73;9.83;;;28.50;66.90;;;;;;4994097;28;20193;-72
2022/07/25 00:14:58;;;;;;;11.47;10.40;;;28.40;68.20;;;;;;4995064;28;21059;-72
2022/07/25 00:17:24;;;;;;;11.97;10.73;;;28.40;67.40;;;;;;4996197;28;20640;-71
2022/07/25 00:19:50;;;;;;;10.30;9.50;;;28.40;67.40;;;;;;4999242;28;20429;-71
2022/07/25 00:22:15;;;;;;;11.07;10.23;;;28.30;67.50;;;;;;4996337;28;20268;-71
2022/07/25 00:24:41;;;;;;;11.40;10.40;;;28.20;67.80;;;;;;4995548;28;20268;-71
2022/07/25 00:27:06;;;;;;;11.50;10.50;;;28.20;68.10;;;;;;4999930;28;20181;-71
2022/07/25 00:29:32;;;;;;;10.10;9.30;;;28.10;68.70;;;;;;4994509;28;20216;-71
2022/07/25 00:31:57;;;;;;;11.13;9.93;;;28.00;69.40;;;;;;4997691;28;20232;-73
2022/07/25 00:34:23;;;;;;;11.10;10.10;;;28.00;69.80;;;;;;4993658;28;20214;-73
2022/07/25 00:36:48;;;;;;;12.00;10.90;;;27.90;70.20;;;;;;4993946;28;20264;-72
2022/07/25 00:39:14;;;;;;;11.03;10.10;;;27.80;70.60;;;;;;4996550;28;20196;-71
2022/07/25 00:41:40;;;;;;;11.40;10.40;;;27.80;71.00;;;;;;4998251;28;20216;-71
2022/07/25 00:44:05;;;;;;;11.43;10.50;;;27.70;71.40;;;;;;4996585;28;20563;-73
2022/07/25 00:46:31;;;;;;;11.93;10.73;;;27.70;71.60;;;;;;4997769;28;20205;-73
2022/07/25 00:48:57;;;;;;;11.63;10.63;;;27.40;73.00;;;;;;4997652;28;20204;-72
2022/07/25 00:51:24;;;;;;;11.53;10.53;;;27.20;74.90;;;;;;4999363;28;20193;-72
2022/07/25 00:53:49;;;;;;;10.73;9.73;;;27.10;76.30;;;;;;4999151;28;20325;-73
2022/07/25 00:56:16;;;;;;;12.30;11.17;;;27.00;77.30;;;;;;5003249;28;20563;-73
2022/07/25 00:58:42;;;;;;;11.17;10.07;;;27.00;77.90;;;;;;4996540;28;20315;-73
2022/07/25 01:01:07;;;;;;;10.73;9.80;;;26.90;78.60;;;;;;4998370;28;20939;-72
2022/07/25 01:03:33;;;;;;;11.83;10.83;;;26.90;79.00;;;;;;4997750;28;20440;-72
2022/07/25 01:05:58;;;;;;;12.53;11.43;;;26.80;79.70;;;;;;5000750;28;20730;-73
2022/07/25 01:08:24;;;;;;;11.70;10.70;;;26.80;80.50;;;;;;5000253;28;20668;-72
2022/07/25 01:10:50;;;;;;;11.80;10.80;;;26.70;81.30;;;;;;4998580;28;20200;-72
2022/07/25 01:13:22;;;;;;;13.57;11.20;;;26.60;81.80;;;;;;5000782;28;20581;-73
2022/07/25 01:15:48;;;;;;;11.93;10.93;;;26.60;82.80;;;;;;4998159;28;20457;-73
2022/07/25 01:18:13;;;;;;;10.90;9.90;;;26.70;83.60;;;;;;5000032;28;20956;-72
2022/07/25 01:20:39;;;;;;;12.80;11.80;;;26.70;83.80;;;;;;4998121;28;20223;-71
2022/07/25 01:23:05;;;;;;;11.50;10.60;;;26.60;83.90;;;;;;4999203;28;20185;-72
2022/07/25 01:25:30;;;;;;;10.87;9.97;;;26.60;84.00;;;;;;5000356;28;20205;-71
2022/07/25 01:27:57;;;;;;;12.00;10.83;;;26.60;84.10;;;;;;4999578;28;20277;-72
2022/07/25 01:30:24;;;;;;;11.40;10.20;;;26.70;84.20;;;;;;4999032;28;20282;-72
2022/07/25 01:32:49;;;;;;;12.47;11.27;;;26.60;84.10;;;;;;5000559;28;20472;-73
2022/07/25 01:35:15;;;;;;;10.43;9.53;;;26.60;84.10;;;;;;4999880;28;20463;-72
2022/07/25 01:37:41;;;;;;;11.93;10.93;;;26.60;84.10;;;;;;4997929;28;20181;-71
2022/07/25 01:40:07;;;;;;;11.97;10.87;;;26.70;84.10;;;;;;4998878;28;20190;-71
2022/07/25 01:42:33;;;;;;;11.93;10.93;;;26.70;83.80;;;;;;5000100;28;20177;-71
2022/07/25 01:44:59;;;;;;;12.60;11.40;;;26.60;82.70;;;;;;4994796;28;20471;-71
2022/07/25 01:47:25;;;;;;;11.77;10.77;;;26.70;82.90;;;;;;5000215;28;20185;-71
2022/07/25 01:49:51;;;;;;;11.40;10.20;;;26.70;82.60;;;;;;5000395;28;20502;-72
2022/07/25 01:52:16;;;;;;;11.33;10.43;;;26.60;82.50;;;;;;5000514;28;20744;-72
2022/07/25 01:54:42;;;;;;;11.60;10.60;;;26.60;82.70;;;;;;5000152;28;20244;-71
2022/07/25 01:57:08;;;;;;;11.80;10.80;;;26.60;82.70;;;;;;4999306;28;20189;-70
2022/07/25 01:59:38;;;;;;;12.10;11.00;;;26.60;82.70;;;;;;4996214;28;20184;-71
2022/07/25 02:02:06;;;;;;;11.13;10.13;;;26.60;82.90;;;;;;4996059;28;20439;-71
2022/07/25 02:04:32;;;;;;;11.33;10.33;;;26.60;83.20;;;;;;4999318;28;20471;-71
2022/07/25 02:06:57;;;;;;;11.27;10.17;;;26.60;83.30;;;;;;4999255;28;20834;-71
2022/07/25 02:09:23;;;;;;;12.03;10.80;;;26.60;83.00;;;;;;4999432;28;20448;-71
2022/07/25 02:11:48;;;;;;;11.77;10.87;;;26.60;83.20;;;;;;4998471;28;20193;-70
2022/07/25 02:14:14;;;;;;;12.23;10.87;;;26.60;83.10;;;;;;5000173;28;20300;-71
2022/07/25 02:16:39;;;;;;;11.37;10.33;;;26.60;83.00;;;;;;4998722;28;20189;-71
2022/07/25 02:19:05;;;;;;;12.30;10.53;;;26.60;83.00;;;;;;4999301;28;20181;-72
2022/07/25 02:21:31;;;;;;;11.97;10.87;;;26.60;83.50;;;;;;4997431;28;20189;-71
2022/07/25 02:23:56;;;;;;;12.83;11.73;;;26.60;83.50;;;;;;4999912;28;21183;-71
2022/07/25 02:26:22;;;;;;;11.10;10.00;;;26.60;83.50;;;;;;4998158;28;20205;-71
2022/07/25 02:28:49;;;;;;;11.53;10.53;;;26.50;83.80;;;;;;4999050;28;20254;-71
2022/07/25 02:31:15;;;;;;;10.30;9.30;;;26.50;83.90;;;;;;4996659;28;20276;-72
2022/07/25 02:33:40;;;;;;;12.33;10.93;;;26.40;84.40;;;;;;4998655;28;21167;-71
2022/07/25 02:36:06;;;;;;;12.33;11.20;;;26.50;84.40;;;;;;5000703;28;20217;-71
2022/07/25 02:38:32;;;;;;;10.57;9.57;;;26.50;84.40;;;;;;4998647;28;20585;-71
2022/07/25 02:40:58;;;;;;;10.70;9.73;;;26.50;84.80;;;;;;4995957;28;20441;-72
2022/07/25 02:43:23;;;;;;;10.70;9.60;;;26.50;85.10;;;;;;5001864;28;20189;-72
2022/07/25 02:45:49;;;;;;;11.20;10.30;;;26.40;85.40;;;;;;5000663;28;21428;-71
2022/07/25 02:48:15;;;;;;;11.80;10.80;;;26.50;85.20;;;;;;5015468;28;20195;-74
2022/07/25 02:50:40;;;;;;;12.37;10.60;;;26.50;84.40;;;;;;4999759;28;20555;-71
2022/07/25 02:53:06;;;;;;;11.17;10.27;;;26.40;84.10;;;;;;4990120;28;20244;-73
2022/07/25 02:55:31;;;;;;;12.30;11.20;;;26.30;84.20;;;;;;5002016;28;20216;-73
2022/07/25 02:57:57;;;;;;;11.80;10.73;;;26.30;84.50;;;;;;4995333;28;20202;-73
2022/07/25 03:00:23;;;;;;;11.30;10.17;;;26.30;84.80;;;;;;4996201;28;20392;-72
2022/07/25 03:02:49;;;;;;;12.40;11.30;;;26.20;84.70;;;;;;4994232;28;22157;-71
2022/07/25 03:05:15;;;;;;;13.40;11.30;;;26.20;85.20;;;;;;4996973;28;20498;-71
2022/07/25 03:07:42;;;;;;;12.23;11.17;;;26.10;85.90;;;;;;4997873;28;20193;-72
2022/07/25 03:10:11;;;;;;;12.40;10.97;;;26.10;86.30;;;;;;4992898;28;20547;-72
2022/07/25 03:12:37;;;;;;;13.77;12.40;;;26.00;87.20;;;;;;4998491;28;20443;-72
2022/07/25 03:15:04;;;;;;;11.90;10.90;;;25.90;88.10;;;;;;4997184;28;20981;-72
2022/07/25 03:17:29;;;;;;;16.97;11.70;;;25.80;89.10;;;;;;4995983;28;20998;-71
2022/07/25 03:19:55;;;;;;;13.10;12.00;;;25.80;89.10;;;;;;4999075;28;20439;-72
2022/07/25 03:22:22;;;;;;;12.07;10.90;;;25.80;89.30;;;;;;4996521;28;20192;-72
2022/07/25 03:24:48;;;;;;;12.53;11.50;;;25.70;90.10;;;;;;4994910;28;20209;-72
2022/07/25 03:27:13;;;;;;;12.60;11.30;;;25.70;90.20;;;;;;4997742;28;20456;-71
2022/07/25 03:29:39;;;;;;;12.87;11.77;;;25.60;90.30;;;;;;4996833;28;20192;-71
2022/07/25 03:32:06;;;;;;;12.50;11.17;;;25.70;90.30;;;;;;4996609;28;20806;-71
2022/07/25 03:34:32;;;;;;;12.97;11.77;;;25.70;90.30;;;;;;4995765;28;20486;-71
2022/07/25 03:36:59;;;;;;;11.30;10.30;;;25.80;90.50;;;;;;4997364;28;20438;-71
2022/07/25 03:39:25;;;;;;;13.23;12.13;;;25.70;90.50;;;;;;4996643;28;20529;-71
2022/07/25 03:41:51;;;;;;;13.50;12.30;;;25.70;90.60;;;;;;4994680;28;20444;-72
2022/07/25 03:44:18;;;;;;;13.03;11.83;;;25.70;90.50;;;;;;4995439;28;20460;-73
2022/07/25 03:46:43;;;;;;;11.50;10.40;;;25.70;90.30;;;;;;4995151;28;20447;-72
2022/07/25 03:49:09;;;;;;;15.67;12.00;;;25.80;90.10;;;;;;4996705;28;20447;-73
2022/07/25 03:51:34;;;;;;;12.23;11.23;;;25.70;90.20;;;;;;4996080;28;20224;-73
2022/07/25 03:54:03;;;;;;;12.77;11.47;;;25.60;90.70;;;;;;4997546;28;21902;-71
2022/07/25 03:56:35;;;;;;;12.50;11.30;;;25.40;91.00;;;;;;4995751;28;20312;-71
2022/07/25 03:59:01;;;;;;;12.73;11.53;;;25.50;91.10;;;;;;4995476;28;20799;-71
2022/07/25 04:01:26;;;;;;;14.20;12.83;;;25.50;91.20;;;;;;4998846;28;20440;-72
2022/07/25 04:03:52;;;;;;;13.23;12.13;;;25.50;91.30;;;;;;4996332;28;20196;-72
2022/07/25 04:06:18;;;;;;;12.83;11.30;;;25.40;91.60;;;;;;4997077;28;20224;-72
2022/07/25 04:08:44;;;;;;;13.97;12.50;;;25.30;91.70;;;;;;4993516;28;20951;-72
2022/07/25 04:11:10;;;;;;;12.10;10.77;;;25.20;92.00;;;;;;4998130;28;20193;-72
2022/07/25 04:13:36;;;;;;;12.07;11.07;;;25.20;92.10;;;;;;4999530;28;20832;-71
2022/07/25 04:16:01;;;;;;;13.37;12.10;;;25.20;92.20;;;;;;4996355;28;20220;-72
2022/07/25 04:18:27;;;;;;;12.33;11.23;;;25.20;92.40;;;;;;4997445;28;20640;-72
2022/07/25 04:20:52;;;;;;;13.23;11.93;;;25.20;92.40;;;;;;4998509;28;20292;-72
2022/07/25 04:23:18;;;;;;;11.97;10.87;;;25.20;92.20;;;;;;4999144;28;20193;-72
2022/07/25 04:25:43;;;;;;;12.00;10.83;;;25.20;92.40;;;;;;5000591;28;20213;-72
2022/07/25 04:28:09;;;;;;;12.87;11.77;;;25.20;92.70;;;;;;5001404;28;20266;-72
2022/07/25 04:30:34;;;;;;;12.50;11.20;;;25.10;92.80;;;;;;4999941;28;20264;-73
2022/07/25 04:33:00;;;;;;;13.33;12.03;;;25.10;92.90;;;;;;4998386;28;20798;-71
2022/07/25 04:35:26;;;;;;;14.27;12.90;;;25.10;92.90;;;;;;4999926;28;20296;-71
2022/07/25 04:37:51;;;;;;;13.03;11.80;;;25.20;92.70;;;;;;4998567;28;20197;-71
2022/07/25 04:40:17;;;;;;;13.80;11.87;;;25.20;92.70;;;;;;5002041;28;20197;-72
2022/07/25 04:42:42;;;;;;;12.73;11.40;;;25.20;92.60;;;;;;4999636;28;21044;-71
2022/07/25 04:45:08;;;;;;;14.20;12.77;;;25.30;92.60;;;;;;5000742;28;20220;-71
2022/07/25 04:47:34;;;;;;;13.37;12.17;;;25.00;92.90;;;;;;4999462;28;20189;-71
2022/07/25 04:50:00;;;;;;;14.07;12.03;;;25.00;93.10;;;;;;4997767;28;20224;-71
2022/07/25 04:52:25;;;;;;;13.50;12.30;;;25.00;93.30;;;;;;5000697;28;20506;-73
2022/07/25 04:54:51;;;;;;;12.43;11.23;;;24.90;93.50;;;;;;5000048;28;20574;-73
2022/07/25 04:57:16;;;;;;;13.90;12.60;;;24.80;93.80;;;;;;5002797;28;20202;-73
2022/07/25 04:59:43;;;;;;;12.17;10.97;;;24.80;93.90;;;;;;4997553;28;20196;-74
2022/07/25 05:02:08;;;;;;;13.67;12.23;;;24.80;94.10;;;;;;4998715;28;20193;-73
2022/07/25 05:04:34;;;;;;;12.60;11.40;;;24.90;93.90;;;;;;5000013;28;20962;-72
2022/07/25 05:06:59;;;;;;;13.27;11.93;;;24.90;94.00;;;;;;4999863;28;20221;-72
2022/07/25 05:09:26;;;;;;;14.03;12.47;;;24.90;94.10;;;;;;5000955;28;20304;-72
2022/07/25 05:11:52;;;;;;;13.00;11.80;;;24.90;94.00;;;;;;4999115;28;20676;-72
2022/07/25 05:14:18;;;;;;;13.40;12.20;;;24.80;94.20;;;;;;4997617;28;20493;-73
2022/07/25 05:16:43;;;;;;;11.80;10.80;;;24.70;94.60;;;;;;5001717;28;20538;-73
2022/07/25 05:19:09;;;;;;;13.30;12.00;;;24.70;94.90;;;;;;4999511;28;20181;-72
2022/07/25 05:21:34;;;;;;;12.73;11.47;;;24.70;95.10;;;;;;4997635;28;20281;-72
2022/07/25 05:24:00;;;;;;;13.27;11.87;;;24.70;95.30;;;;;;5000009;28;20610;-74
2022/07/25 05:26:25;;;;;;;11.60;10.50;;;24.70;95.30;;;;;;5004693;28;20193;-72
2022/07/25 05:28:51;;;;;;;13.57;12.27;;;24.80;95.20;;;;;;5003261;28;20197;-73
2022/07/25 05:31:17;;;;;;;12.17;11.07;;;24.90;95.20;;;;;;5003602;28;20573;-74
2022/07/25 05:33:42;;;;;;;12.87;11.20;;;24.90;95.20;;;;;;4998038;28;20209;-74
2022/07/25 05:36:08;;;;;;;11.90;10.80;;;24.90;95.10;;;;;;4995615;28;20201;-72
2022/07/25 05:38:34;;;;;;;12.50;11.40;;;24.90;95.40;;;;;;5002949;28;20193;-73
2022/07/25 05:40:59;;;;;;;12.70;10.73;;;24.90;95.50;;;;;;5000574;28;20186;-71
2022/07/25 05:43:25;;;;;;;12.90;11.77;;;25.00;95.50;;;;;;4999719;28;20531;-71
2022/07/25 05:45:51;;;;;;;12.50;11.40;;;25.10;95.50;;;;;;5003295;28;20686;-71
2022/07/25 05:48:16;;;;;;;12.57;11.40;;;25.20;95.20;;;;;;5000794;28;20275;-72
2022/07/25 05:50:42;;;;;;;12.13;10.93;;;25.30;95.10;;;;;;5000571;28;20625;-74
2022/07/25 05:53:08;;;;;;;12.70;11.53;;;25.30;95.00;;;;;;5000606;28;20212;-74
2022/07/25 05:55:33;;;;;;;12.50;11.30;;;25.30;95.20;;;;;;5001670;28;20834;-72
2022/07/25 05:57:59;;;;;;;13.60;11.40;;;25.30;95.10;;;;;;5000096;28;20690;-73
2022/07/25 06:00:25;;;;;;;12.30;11.20;;;25.40;95.00;;;;;;5001004;28;20185;-73
2022/07/25 06:02:50;;;;;;;11.90;10.83;;;25.30;95.00;;;;;;4999297;28;20200;-74
2022/07/25 06:05:16;;;;;;;13.83;10.90;;;25.40;95.20;;;;;;5000409;28;20284;-74
2022/07/25 06:07:42;;;;;;;12.87;11.60;;;25.40;95.20;;;;;;4998643;28;20194;-73
2022/07/25 06:10:08;;;;;;;12.10;11.00;;;25.50;95.10;;;;;;4999147;28;20319;-73
2022/07/25 06:12:33;;;;;;;12.70;10.50;;;25.50;95.00;;;;;;5011929;28;20258;-73
2022/07/25 06:15:00;;;;;;;12.27;11.17;;;25.60;94.90;;;;;;5000563;28;20452;-73
2022/07/25 06:17:25;;;;;;;12.20;11.00;;;25.60;94.90;;;;;;4998943;28;20689;-72
2022/07/25 06:19:51;;;;;;;12.03;10.93;;;25.80;94.80;;;;;;5000976;28;20467;-72
2022/07/25 06:22:18;;;;;;;12.37;11.20;;;25.70;95.00;;;;;;5000844;28;20192;-72
2022/07/25 06:24:44;;;;;;;12.80;11.50;;;25.90;94.80;;;;;;4995809;28;20865;-72
2022/07/25 06:27:10;;;;;;;15.93;13.20;;;25.90;94.80;;;;;;4998397;28;20555;-72
2022/07/25 06:29:36;;;;;;;12.50;11.40;;;26.00;94.70;;;;;;4999349;28;20548;-73
2022/07/25 06:32:02;;;;;;;12.17;11.07;;;25.90;94.60;;;;;;4995689;28;20448;-73
2022/07/25 06:34:28;;;;;;;13.77;12.47;;;26.00;94.40;;;;;;4998702;28;20550;-72
2022/07/25 06:36:54;;;;;;;12.00;11.00;;;26.00;94.30;;;;;;5004244;28;20428;-72
2022/07/25 06:39:19;;;;;;;12.03;10.80;;;26.10;94.20;;;;;;4995585;28;20445;-73
2022/07/25 06:41:45;;;;;;;13.40;10.63;;;26.10;93.80;;;;;;4999160;28;20564;-71
2022/07/25 06:44:10;;;;;;;12.07;10.97;;;26.10;93.70;;;;;;4999229;28;20200;-71
2022/07/25 06:46:36;;;;;;;12.17;10.97;;;26.10;93.70;;;;;;5002406;28;20558;-69
2022/07/25 06:49:02;;;;;;;11.63;10.63;;;26.30;93.50;;;;;;5015965;28;21152;-70
2022/07/25 06:51:30;;;;;;;12.43;11.27;;;26.30;93.30;;;;;;4994850;28;20198;-70
2022/07/25 06:53:55;;;;;;;14.03;12.73;;;26.30;93.30;;;;;;5006068;28;20652;-72
2022/07/25 06:56:21;;;;;;;13.00;11.90;;;26.30;93.20;;;;;;4996620;28;20444;-72
2022/07/25 06:58:47;;;;;;;12.30;11.10;;;26.30;93.20;;;;;;4998080;28;20272;-72
2022/07/25 07:01:12;;;;;;;12.40;11.20;;;26.50;93.20;;;;;;4997738;28;20184;-72
2022/07/25 07:03:39;;;;;;;12.30;11.30;;;26.50;93.00;;;;;;4996634;28;20197;-71
2022/07/25 07:06:06;;;;;;;13.13;11.20;;;26.60;92.70;;;;;;4996407;28;20218;-70
2022/07/25 07:08:32;;;;;;;13.47;11.50;;;26.70;92.40;;;;;;4996120;28;20484;-69
2022/07/25 07:10:58;;;;;;;13.53;12.30;;;26.60;92.20;;;;;;4999600;28;20473;-71
2022/07/25 07:13:24;;;;;;;11.43;10.43;;;26.70;91.90;;;;;;4995864;28;20468;-71
2022/07/25 07:15:50;;;;;;;10.87;9.87;;;26.90;92.00;;;;;;5016852;28;20956;-71
2022/07/25 07:18:17;;;;;;;12.00;10.90;;;26.90;91.80;;;;;;4999757;28;20436;-69
2022/07/25 07:20:43;;;;;;;12.63;10.10;;;27.00;91.70;;;;;;4997642;28;20471;-70
2022/07/25 07:23:09;;;;;;;13.03;10.70;;;27.00;91.60;;;;;;4997782;28;20800;-69
2022/07/25 07:25:35;;;;;;;11.03;10.03;;;27.00;91.60;;;;;;4998774;28;20460;-70
2022/07/25 07:28:01;;;;;;;11.30;10.10;;;27.10;91.70;;;;;;4998661;28;20190;-71
2022/07/25 07:30:26;;;;;;;12.30;11.30;;;27.20;91.60;;;;;;4998129;28;20266;-73
2022/07/25 07:32:52;;;;;;;13.13;10.30;;;27.40;91.40;;;;;;4998588;28;20463;-72
2022/07/25 07:35:18;;;;;;;12.80;11.63;;;27.40;91.00;;;;;;4999858;28;20209;-70
2022/07/25 07:37:45;;;;;;;14.93;11.17;;;27.50;91.30;;;;;;4998385;28;20196;-71
2022/07/25 07:40:14;;;;;;;11.20;10.13;;;27.50;90.80;;;;;;4997095;28;20795;-69
2022/07/25 07:42:42;;;;;;;13.83;12.60;;;27.60;90.30;;;;;;4998127;28;20440;-69
2022/07/25 07:45:11;;;;;;;13.80;10.87;;;27.60;90.30;;;;;;4989598;28;20979;-69
2022/07/25 07:47:36;;;;;;;12.73;11.17;;;27.70;90.00;;;;;;4993852;28;20442;-72
2022/07/25 07:50:02;;;;;;;11.63;10.53;;;27.70;89.90;;;;;;4993309;28;20783;-70
2022/07/25 07:52:28;;;;;;;12.90;10.93;;;27.70;89.40;;;;;;4990876;28;20220;-70
2022/07/25 07:57:37;;;;;;;14.73;11.13;;;27.80;88.80;;;;;;4993892;28;20237;-71
2022/07/25 08:00:04;;;;;;;13.83;11.20;;;27.90;88.60;;;;;;4995413;28;20451;-71
2022/07/25 08:02:29;;;;;;;10.50;9.67;;;28.00;88.30;;;;;;4994318;28;20192;-72
2022/07/25 08:04:55;;;;;;;13.87;11.37;;;27.90;88.40;;;;;;4996021;28;20467;-71
2022/07/25 08:07:20;;;;;;;12.90;11.50;;;28.00;88.40;;;;;;4994279;28;20213;-71
2022/07/25 08:09:46;;;;;;;17.23;11.30;;;28.10;88.20;;;;;;4991034;28;20181;-72
2022/07/25 08:12:11;;;;;;;11.50;10.40;;;28.20;88.00;;;;;;4995591;28;20718;-72
2022/07/25 08:14:37;;;;;;;11.23;10.23;;;28.30;87.60;;;;;;4995120;28;20216;-72
2022/07/25 08:17:03;;;;;;;12.20;11.10;;;28.30;88.10;;;;;;4993935;28;20185;-75
2022/07/25 08:19:28;;;;;;;11.30;10.20;;;28.30;87.30;;;;;;4993576;28;20719;-71
2022/07/25 08:21:54;;;;;;;12.20;11.10;;;28.40;87.40;;;;;;4994711;28;20246;-72
2022/07/25 08:24:19;;;;;;;11.20;10.30;;;28.50;86.80;;;;;;4993866;28;20213;-73
2022/07/25 08:26:45;;;;;;;11.17;10.20;;;28.50;86.80;;;;;;4995415;28;20192;-72
2022/07/25 08:29:10;;;;;;;12.63;10.53;;;28.60;86.50;;;;;;5005197;28;20193;-71
2022/07/25 08:31:36;;;;;;;11.43;10.30;;;28.70;86.70;;;;;;4993171;28;20194;-71
2022/07/25 08:34:02;;;;;;;11.50;10.40;;;28.80;86.40;;;;;;4994106;28;20566;-72
2022/07/25 08:36:28;;;;;;;11.13;10.23;;;28.80;86.10;;;;;;4993890;28;20213;-71
2022/07/25 08:38:53;;;;;;;11.60;10.70;;;28.90;86.30;;;;;;4993513;28;20841;-71
2022/07/25 08:41:19;;;;;;;11.80;10.60;;;29.00;85.80;;;;;;4994119;28;20185;-71
2022/07/25 08:43:48;;;;;;;11.93;10.60;;;29.10;85.60;;;;;;4990007;28;20769;-71
2022/07/25 08:46:15;;;;;;;11.47;10.53;;;29.10;85.80;;;;;;4990523;28;20221;-72
2022/07/25 08:48:41;;;;;;;10.70;9.80;;;29.20;85.70;;;;;;4990253;28;20450;-72
2022/07/25 08:51:08;;;;;;;11.27;10.23;;;29.30;85.60;;;;;;4986348;28;20451;-71
2022/07/25 08:53:35;;;;;;;10.80;9.80;;;29.40;84.90;;;;;;4994024;28;20551;-71
2022/07/25 08:56:03;;;;;;;12.13;11.13;;;29.50;84.20;;;;;;4994227;28;20994;-71
2022/07/25 08:58:29;;;;;;;10.93;9.83;;;29.60;84.10;;;;;;4993660;28;20502;-71
2022/07/25 09:00:57;;;;;;;11.07;9.87;;;29.70;83.40;;;;;;4993878;28;20518;-71
2022/07/25 09:03:22;;;;;;;11.23;10.13;;;29.80;82.30;;;;;;4995201;28;20613;-71
2022/07/25 09:05:48;;;;;;;10.70;9.80;;;29.90;81.30;;;;;;4995635;28;20494;-70
2022/07/25 09:08:16;;;;;;;11.13;10.03;;;30.00;80.50;;;;;;4997020;28;20575;-70
2022/07/25 09:10:49;;;;;;;10.30;9.50;;;30.10;80.30;;;;;;4999245;28;20204;-70
2022/07/25 09:13:16;;;;;;;10.97;10.07;;;30.20;79.90;;;;;;4997860;28;20841;-71
2022/07/25 09:15:45;;;;;;;11.17;10.17;;;30.30;78.60;;;;;;5001446;28;20508;-74
2022/07/25 09:18:12;;;;;;;10.43;9.53;;;30.30;77.40;;;;;;5011336;28;20989;-72
2022/07/25 09:20:43;;;;;;;10.63;9.63;;;30.40;77.80;;;;;;4997901;28;20452;-72
2022/07/25 09:23:14;;;;;;;11.70;10.70;;;30.50;77.40;;;;;;4999712;28;20440;-70
2022/07/25 09:25:40;;;;;;;10.90;10.00;;;30.50;77.20;;;;;;5000427;28;20510;-69
2022/07/25 09:28:10;;;;;;;11.20;10.20;;;30.60;76.90;;;;;;5002116;28;20539;-70
2022/07/25 09:30:35;;;;;;;10.87;9.97;;;30.60;76.30;;;;;;4998360;28;20443;-69
2022/07/25 09:33:01;;;;;;;11.57;10.50;;;30.70;76.10;;;;;;4996550;28;20797;-69
2022/07/25 09:35:39;;;;;;;10.27;9.27;;;30.80;76.00;;;;;;4986296;28;20313;-73
2022/07/25 09:38:13;;;;;;;11.93;9.43;;;30.80;75.50;;;;;;4995545;28;20251;-73
2022/07/25 09:40:40;;;;;;;10.50;9.60;;;30.90;74.40;;;;;;4995933;28;20885;-70
2022/07/25 09:43:07;;;;;;;11.20;10.20;;;31.00;73.50;;;;;;4995362;28;20455;-73
2022/07/25 09:45:33;;;;;;;12.17;10.10;;;31.10;72.70;;;;;;4995583;28;21227;-72
2022/07/25 09:48:03;;;;;;;10.73;9.83;;;31.20;71.70;;;;;;4997107;28;20448;-71
2022/07/25 09:50:31;;;;;;;11.10;9.53;;;31.20;71.00;;;;;;4995272;28;20216;-72
2022/07/25 09:53:00;;;;;;;10.57;9.70;;;31.20;70.20;;;;;;4994446;28;20449;-71
2022/07/25 09:55:26;;;;;;;9.77;8.97;;;31.30;68.00;;;;;;4996240;28;20462;-71
2022/07/25 09:57:52;;;;;;;10.50;9.60;;;31.30;68.50;;;;;;4996338;28;20444;-71
2022/07/25 10:00:24;;;;;;;10.23;9.27;;;31.40;68.30;;;;;;4992423;28;20973;-69
2022/07/25 10:03:14;;;;;;;11.40;10.20;;;31.60;66.70;;;;;;4995971;28;20189;-73
2022/07/25 10:06:01;;;;;;;10.17;9.10;;;31.60;67.00;;;;;;4996502;28;20567;-72
2022/07/25 10:08:28;;;;;;;10.03;9.13;;;31.70;67.00;;;;;;4993057;28;20432;-72
2022/07/25 10:10:54;;;;;;;9.87;9.00;;;31.90;67.00;;;;;;4997469;28;20427;-72
2022/07/25 10:13:33;;;;;;;10.03;9.13;;;31.90;64.20;;;;;;4997984;28;20545;-72
2022/07/25 10:16:00;;;;;;;9.43;8.63;;;32.10;65.10;;;;;;4997620;28;20610;-70
2022/07/25 10:18:27;;;;;;;9.53;8.77;;;32.20;65.20;;;;;;4997085;28;20922;-72
2022/07/25 10:21:06;;;;;;;10.40;9.50;;;32.30;63.80;;;;;;4995309;28;21260;-73
2022/07/25 10:23:32;;;;;;;10.03;9.13;;;32.30;63.10;;;;;;4992683;28;20439;-72
2022/07/25 10:26:09;;;;;;;10.53;9.67;;;32.30;63.30;;;;;;4995203;28;20471;-72
2022/07/25 10:28:39;;;;;;;9.97;9.17;;;32.30;62.80;;;;;;4994069;28;20185;-73
2022/07/25 10:31:28;;;;;;;11.83;9.30;;;32.30;63.60;;;;;;4989943;28;20503;-72
2022/07/25 10:33:56;;;;;;;12.00;9.90;;;32.40;64.60;;;;;;4995432;28;20476;-71
2022/07/25 10:36:23;;;;;;;11.00;10.10;;;32.40;63.70;;;;;;4995113;28;20928;-72
2022/07/25 10:38:56;;;;;;;10.10;9.20;;;32.50;64.30;;;;;;4994112;28;20473;-73
2022/07/25 10:41:25;;;;;;;11.10;10.20;;;32.60;64.40;;;;;;4995084;28;20472;-76
2022/07/25 10:43:51;;;;;;;10.27;9.47;;;32.60;64.60;;;;;;4995620;28;20455;-71
2022/07/25 10:46:22;;;;;;;11.37;10.27;;;32.70;64.20;;;;;;4994359;28;21028;-71
2022/07/25 10:49:02;;;;;;;10.73;9.83;;;32.70;63.50;;;;;;4994728;28;20228;-71
2022/07/25 10:51:30;;;;;;;9.70;8.90;;;32.70;63.20;;;;;;4994211;28;20426;-72
2022/07/25 10:53:56;;;;;;;10.20;9.30;;;32.70;62.90;;;;;;4995555;28;20829;-74
2022/07/25 10:56:26;;;;;;;10.10;9.20;;;32.90;63.10;;;;;;4994469;28;20435;-73
2022/07/25 10:58:59;;;;;;;11.10;10.10;;;32.90;62.60;;;;;;4994279;28;20182;-73
2022/07/25 11:01:27;;;;;;;10.27;9.30;;;33.00;62.90;;;;;;5010952;28;20969;-74
2022/07/25 11:03:55;;;;;;;10.60;9.60;;;33.10;61.60;;;;;;4998733;28;20502;-74
2022/07/25 11:06:38;;;;;;;9.50;8.70;;;33.00;62.00;;;;;;4992526;28;20658;-74
2022/07/25 11:09:17;;;;;;;10.13;9.13;;;33.10;61.00;;;;;;4994802;28;20414;-75
2022/07/25 11:11:50;;;;;;;11.90;10.70;;;33.20;61.40;;;;;;4992406;28;20442;-76
2022/07/25 11:14:19;;;;;;;9.60;8.90;;;33.20;62.70;;;;;;4988263;28;20556;-73
2022/07/25 11:16:47;;;;;;;14.17;12.77;;;33.10;62.80;;;;;;5014242;28;20435;-78
2022/07/25 11:19:17;;;;;;;12.03;10.80;;;33.20;62.30;;;;;;4993914;28;20563;-79
2022/07/25 11:21:44;;;;;;;11.13;10.23;;;33.20;62.70;;;;;;4995985;28;20447;-80
2022/07/25 11:24:09;;;;;;;10.93;10.03;;;33.30;62.00;;;;;;4995150;28;20430;-74
2022/07/25 11:26:44;;;;;;;9.93;9.03;;;33.40;61.80;;;;;;4994199;28;22395;-76
2022/07/25 11:29:21;;;;;;;9.63;8.73;;;33.50;61.70;;;;;;4995023;28;20560;-71
2022/07/25 11:31:51;;;;;;;10.67;9.70;;;33.60;60.10;;;;;;4995057;28;20519;-71
2022/07/25 11:34:21;;;;;;;10.83;10.03;;;33.60;60.00;;;;;;4987456;28;20458;-72
2022/07/25 11:36:47;;;;;;;10.27;9.37;;;33.60;59.30;;;;;;4994557;28;20435;-72
2022/07/25 11:39:16;;;;;;;9.33;8.53;;;33.60;59.70;;;;;;4993386;28;20447;-81
2022/07/25 11:41:41;;;;;;;13.23;9.40;;;33.50;58.60;;;;;;4990231;28;20187;-76
2022/07/25 11:44:07;;;;;;;9.60;8.57;;;33.50;58.20;;;;;;4993316;28;21039;-82
2022/07/25 11:46:43;;;;;;;10.10;9.13;;;33.50;58.80;;;;;;4991905;28;20185;-75
2022/07/25 11:49:09;;;;;;;9.53;8.83;;;33.50;58.80;;;;;;4992699;28;20287;-76
2022/07/25 11:51:37;;;;;;;9.70;8.70;;;33.60;59.00;;;;;;4992273;28;20458;-75
2022/07/25 11:54:10;;;;;;;10.07;9.27;;;33.70;59.00;;;;;;4991158;28;20315;-72
2022/07/25 11:56:39;;;;;;;10.80;9.70;;;33.80;59.10;;;;;;4996359;28;20432;-72
2022/07/25 11:59:05;;;;;;;9.30;8.50;;;33.70;59.20;;;;;;4992912;28;20415;-74
2022/07/25 12:01:39;;;;;;;9.47;8.67;;;33.90;58.10;;;;;;4993741;28;20823;-74
2022/07/25 12:04:09;;;;;;;9.80;8.93;;;34.00;58.50;;;;;;4991365;28;20564;-75
2022/07/25 12:06:35;;;;;;;9.53;8.70;;;34.30;58.60;;;;;;4993948;28;20443;-76
2022/07/25 12:09:20;;;;;;;9.80;9.10;;;34.60;57.90;;;;;;4992260;28;20935;-76
2022/07/25 12:11:47;;;;;;;9.93;9.13;;;34.90;57.30;;;;;;4993061;28;20272;-76
2022/07/25 12:14:15;;;;;;;9.63;8.87;;;35.10;57.00;;;;;;4993277;28;20604;-77
2022/07/25 12:16:41;;;;;;;11.00;10.10;;;35.10;56.50;;;;;;4994736;28;20425;-75
2022/07/25 12:19:20;;;;;;;9.93;8.93;;;35.00;56.20;;;;;;4996532;28;20406;-74
2022/07/25 12:21:45;;;;;;;11.80;8.50;;;35.00;56.40;;;;;;4994703;28;20197;-74
2022/07/25 12:24:11;;;;;;;10.40;9.43;;;35.00;56.50;;;;;;4992780;28;22849;-75
2022/07/25 12:26:37;;;;;;;9.97;9.00;;;35.00;56.50;;;;;;4997079;28;20189;-75
2022/07/25 12:29:02;;;;;;;9.50;8.60;;;35.00;56.10;;;;;;4994011;28;20702;-74
2022/07/25 12:31:28;;;;;;;10.13;9.13;;;34.90;56.20;;;;;;4993439;28;20192;-74